Flugplatz Wittmundhafen Airport

Bericht für ETNT

vom 14.11. um 04:29 UTC

Wind 8 kt aus 220°

Sichtweite 600 m

Nebel

Temperatur 7.0°C

Taupunkt 7.0°C

Luftfeuchtigkeit 100%

Luftdruck 1026 hPa

ETNT 140429Z 22008KT 0600 FG VV000 07/07 Q1026 RED
Keine Prognose (TAF) verfügbar.
Impressum